aviador You're here:

MMLP Decoded Metar

LA PAZ in MEXICO
Report Time2018-01-19 16:40:00
UTC Time2018-01-19 17:14:58
Flight Rules vfr VFR
WindCalm
Visibility9999 m
Phenomena:N/A
Clouds:N/A
Expected CloudBase > 5,200 ft AGL from Temp-Dew spread
CeilingNone
Temp20°C (ISA +5)
Dew Point07°C (43% RH)
AAT19.3°C
QNH1018 hPa
Density Alt640 ft
Elevation69 ft
Report Wrong Elevation
Raw Report
METAR MMLP 191640Z 00000KT 10SM SKC 20/07 A3007 RMK HZY=

Extra information for MMLP:More info

Metar Taf Metar & Taf Last 4 Metars F.Rules Stats Wind Profile Meteogram Temp Stats Airport Information Weather charts Add Link Nearby VenuesMetar ALERT Operation Metar Decoded Social comments